sensor_id;sensor_type;location;lat;lon;timestamp;pressure;altitude;pressure_sealevel;temperature;humidity
11712;BME280;5912;51.034;6.984;2024-01-10T00:00:37;56903.25;;;-142.13;54.20
11712;BME280;5912;51.034;6.984;2024-01-10T00:03:05;56915.25;;;-142.13;54.40
11712;BME280;5912;51.034;6.984;2024-01-10T00:05:30;56883.19;;;-142.13;54.15
11712;BME280;5912;51.034;6.984;2024-01-10T00:07:56;56839.13;;;-142.13;53.60
11712;BME280;5912;51.034;6.984;2024-01-10T00:10:21;56869.19;;;-142.13;53.68
11712;BME280;5912;51.034;6.984;2024-01-10T00:12:47;56861.16;;;-142.13;53.39
11712;BME280;5912;51.034;6.984;2024-01-10T00:15:12;56885.22;;;-142.13;53.81
11712;BME280;5912;51.034;6.984;2024-01-10T00:17:38;56895.22;;;-142.13;54.09
11712;BME280;5912;51.034;6.984;2024-01-10T00:20:06;56881.19;;;-142.13;53.87
11712;BME280;5912;51.034;6.984;2024-01-10T00:22:31;56879.19;;;-142.13;53.70
11712;BME280;5912;51.034;6.984;2024-01-10T00:24:56;56841.13;;;-142.13;53.92
11712;BME280;5912;51.034;6.984;2024-01-10T00:27:22;56891.22;;;-142.13;53.94
11712;BME280;5912;51.034;6.984;2024-01-10T00:29:47;56873.19;;;-142.13;53.77
11712;BME280;5912;51.034;6.984;2024-01-10T00:32:12;56861.16;;;-142.13;53.99
11712;BME280;5912;51.034;6.984;2024-01-10T00:34:37;56863.16;;;-142.13;54.11
11712;BME280;5912;51.034;6.984;2024-01-10T00:37:03;56919.25;;;-142.13;54.39
11712;BME280;5912;51.034;6.984;2024-01-10T00:39:28;56887.22;;;-142.13;53.93
11712;BME280;5912;51.034;6.984;2024-01-10T00:41:53;56865.16;;;-142.13;53.79
11712;BME280;5912;51.034;6.984;2024-01-10T00:44:19;56915.25;;;-142.13;53.93
11712;BME280;5912;51.034;6.984;2024-01-10T00:46:44;56863.16;;;-142.13;54.29
11712;BME280;5912;51.034;6.984;2024-01-10T00:49:09;56895.22;;;-142.13;54.58
11712;BME280;5912;51.034;6.984;2024-01-10T00:51:35;56879.19;;;-142.13;54.23
11712;BME280;5912;51.034;6.984;2024-01-10T00:54:00;56883.19;;;-142.13;54.19
11712;BME280;5912;51.034;6.984;2024-01-10T00:56:25;56883.19;;;-142.13;54.72
11712;BME280;5912;51.034;6.984;2024-01-10T00:58:50;56893.22;;;-142.13;54.44
11712;BME280;5912;51.034;6.984;2024-01-10T01:01:16;56889.22;;;-142.13;54.42
11712;BME280;5912;51.034;6.984;2024-01-10T01:03:41;56917.25;;;-142.13;54.29
11712;BME280;5912;51.034;6.984;2024-01-10T01:06:06;56869.19;;;-142.13;54.81
11712;BME280;5912;51.034;6.984;2024-01-10T01:08:32;56867.19;;;-142.13;54.18
11712;BME280;5912;51.034;6.984;2024-01-10T01:10:57;56861.16;;;-142.13;54.21
11712;BME280;5912;51.034;6.984;2024-01-10T01:13:22;56875.19;;;-142.13;54.22
11712;BME280;5912;51.034;6.984;2024-01-10T01:15:47;56901.22;;;-142.13;54.53
11712;BME280;5912;51.034;6.984;2024-01-10T01:18:13;56897.22;;;-142.13;53.94
11712;BME280;5912;51.034;6.984;2024-01-10T01:20:38;56869.19;;;-142.13;53.74
11712;BME280;5912;51.034;6.984;2024-01-10T01:23:03;56925.28;;;-142.13;54.07
11712;BME280;5912;51.034;6.984;2024-01-10T01:25:29;56907.25;;;-142.13;53.51
11712;BME280;5912;51.034;6.984;2024-01-10T01:27:54;56869.19;;;-142.13;53.88
11712;BME280;5912;51.034;6.984;2024-01-10T01:30:19;56913.25;;;-142.13;53.70
11712;BME280;5912;51.034;6.984;2024-01-10T01:32:46;56883.19;;;-142.13;53.78
11712;BME280;5912;51.034;6.984;2024-01-10T01:35:12;56881.19;;;-142.13;54.01
11712;BME280;5912;51.034;6.984;2024-01-10T01:37:42;56859.16;;;-142.13;53.49
11712;BME280;5912;51.034;6.984;2024-01-10T01:40:08;56851.16;;;-142.13;53.56
11712;BME280;5912;51.034;6.984;2024-01-10T01:42:33;56879.19;;;-142.13;53.73
11712;BME280;5912;51.034;6.984;2024-01-10T01:44:59;56901.22;;;-142.13;53.81
11712;BME280;5912;51.034;6.984;2024-01-10T01:47:24;56859.16;;;-142.13;53.89
11712;BME280;5912;51.034;6.984;2024-01-10T01:49:49;56901.22;;;-142.13;53.55
11712;BME280;5912;51.034;6.984;2024-01-10T01:52:15;56827.09;;;-142.13;53.68
11712;BME280;5912;51.034;6.984;2024-01-10T01:54:41;56833.13;;;-142.13;53.63
11712;BME280;5912;51.034;6.984;2024-01-10T01:57:06;56883.19;;;-142.13;53.44
11712;BME280;5912;51.034;6.984;2024-01-10T01:59:32;56865.16;;;-142.13;53.98
11712;BME280;5912;51.034;6.984;2024-01-10T02:02:00;56907.25;;;-142.13;54.05
11712;BME280;5912;51.034;6.984;2024-01-10T02:04:28;56873.19;;;-142.13;53.97
11712;BME280;5912;51.034;6.984;2024-01-10T02:06:55;56851.16;;;-142.13;54.24
11712;BME280;5912;51.034;6.984;2024-01-10T02:09:20;56871.19;;;-142.13;54.19
11712;BME280;5912;51.034;6.984;2024-01-10T02:11:46;56899.22;;;-142.13;54.37
11712;BME280;5912;51.034;6.984;2024-01-10T02:14:11;56861.16;;;-142.13;54.49
11712;BME280;5912;51.034;6.984;2024-01-10T02:16:37;56871.19;;;-142.13;54.67
11712;BME280;5912;51.034;6.984;2024-01-10T02:19:26;56893.22;;;-142.13;54.81
11712;BME280;5912;51.034;6.984;2024-01-10T02:21:52;56861.16;;;-142.13;54.79
11712;BME280;5912;51.034;6.984;2024-01-10T02:24:18;56869.19;;;-142.13;55.11
11712;BME280;5912;51.034;6.984;2024-01-10T02:26:43;56885.22;;;-142.13;55.15
11712;BME280;5912;51.034;6.984;2024-01-10T02:29:08;56835.13;;;-142.13;54.84
11712;BME280;5912;51.034;6.984;2024-01-10T02:31:34;56891.22;;;-142.13;54.96
11712;BME280;5912;51.034;6.984;2024-01-10T02:33:59;56879.19;;;-142.13;54.82
11712;BME280;5912;51.034;6.984;2024-01-10T02:36:24;56857.16;;;-142.13;55.03
11712;BME280;5912;51.034;6.984;2024-01-10T02:38:50;56857.16;;;-142.13;54.96
11712;BME280;5912;51.034;6.984;2024-01-10T02:41:16;56861.16;;;-142.13;55.72
11712;BME280;5912;51.034;6.984;2024-01-10T02:43:41;56885.22;;;-142.13;55.29
11712;BME280;5912;51.034;6.984;2024-01-10T02:46:06;56889.22;;;-142.13;55.53
11712;BME280;5912;51.034;6.984;2024-01-10T02:48:32;56873.19;;;-142.13;55.53
11712;BME280;5912;51.034;6.984;2024-01-10T02:50:57;56875.19;;;-142.13;55.81
11712;BME280;5912;51.034;6.984;2024-01-10T02:53:22;56887.22;;;-142.13;55.63
11712;BME280;5912;51.034;6.984;2024-01-10T02:55:48;56869.19;;;-142.13;55.79
11712;BME280;5912;51.034;6.984;2024-01-10T02:58:14;56903.25;;;-142.13;55.50
11712;BME280;5912;51.034;6.984;2024-01-10T03:00:40;56903.25;;;-142.13;56.12
11712;BME280;5912;51.034;6.984;2024-01-10T03:03:05;56903.25;;;-142.13;56.59
11712;BME280;5912;51.034;6.984;2024-01-10T03:05:30;56905.25;;;-142.13;56.34
11712;BME280;5912;51.034;6.984;2024-01-10T03:07:55;56877.19;;;-142.13;56.84
11712;BME280;5912;51.034;6.984;2024-01-10T03:10:21;56897.22;;;-142.13;56.30
11712;BME280;5912;51.034;6.984;2024-01-10T03:12:46;56881.19;;;-142.13;56.03
11712;BME280;5912;51.034;6.984;2024-01-10T03:15:11;56873.19;;;-142.13;56.37
11712;BME280;5912;51.034;6.984;2024-01-10T03:17:37;56897.22;;;-142.13;56.08
11712;BME280;5912;51.034;6.984;2024-01-10T03:20:03;56899.22;;;-142.13;55.91
11712;BME280;5912;51.034;6.984;2024-01-10T03:22:30;56871.19;;;-142.13;56.03
11712;BME280;5912;51.034;6.984;2024-01-10T03:24:55;56863.16;;;-142.13;55.95
11712;BME280;5912;51.034;6.984;2024-01-10T03:27:21;56871.19;;;-142.13;56.04
11712;BME280;5912;51.034;6.984;2024-01-10T03:29:46;56901.22;;;-142.13;56.42
11712;BME280;5912;51.034;6.984;2024-01-10T03:32:11;56891.22;;;-142.13;56.52
11712;BME280;5912;51.034;6.984;2024-01-10T03:34:36;56885.22;;;-142.13;57.00
11712;BME280;5912;51.034;6.984;2024-01-10T03:37:02;56859.16;;;-142.13;56.74
11712;BME280;5912;51.034;6.984;2024-01-10T03:39:27;56929.28;;;-142.13;56.94
11712;BME280;5912;51.034;6.984;2024-01-10T03:41:52;56877.19;;;-142.13;57.12
11712;BME280;5912;51.034;6.984;2024-01-10T03:44:18;56857.16;;;-142.13;57.14
11712;BME280;5912;51.034;6.984;2024-01-10T03:46:43;56893.22;;;-142.13;57.01
11712;BME280;5912;51.034;6.984;2024-01-10T03:49:08;56889.22;;;-142.13;56.82
11712;BME280;5912;51.034;6.984;2024-01-10T03:51:33;56881.19;;;-142.13;56.55
11712;BME280;5912;51.034;6.984;2024-01-10T03:53:59;56853.16;;;-142.13;56.51
11712;BME280;5912;51.034;6.984;2024-01-10T03:56:24;56861.16;;;-142.13;56.40
11712;BME280;5912;51.034;6.984;2024-01-10T03:58:49;56889.22;;;-142.13;56.32
11712;BME280;5912;51.034;6.984;2024-01-10T04:01:15;56857.16;;;-142.13;56.09
11712;BME280;5912;51.034;6.984;2024-01-10T04:03:59;56855.16;;;-142.13;56.25
11712;BME280;5912;51.034;6.984;2024-01-10T04:06:24;56839.13;;;-142.13;56.15
11712;BME280;5912;51.034;6.984;2024-01-10T04:08:50;56857.16;;;-142.13;56.41
11712;BME280;5912;51.034;6.984;2024-01-10T04:11:15;56863.16;;;-142.13;56.17
11712;BME280;5912;51.034;6.984;2024-01-10T04:13:40;56881.19;;;-142.13;56.15
11712;BME280;5912;51.034;6.984;2024-01-10T04:16:06;56881.19;;;-142.13;56.17
11712;BME280;5912;51.034;6.984;2024-01-10T04:18:31;56869.19;;;-142.13;56.71
11712;BME280;5912;51.034;6.984;2024-01-10T04:20:56;56881.19;;;-142.13;56.47
11712;BME280;5912;51.034;6.984;2024-01-10T04:23:22;56889.22;;;-142.13;56.29
11712;BME280;5912;51.034;6.984;2024-01-10T04:25:48;56873.19;;;-142.13;56.31
11712;BME280;5912;51.034;6.984;2024-01-10T04:28:13;56881.19;;;-142.13;56.36
11712;BME280;5912;51.034;6.984;2024-01-10T04:30:38;56861.16;;;-142.13;56.54
11712;BME280;5912;51.034;6.984;2024-01-10T04:33:04;56889.22;;;-142.13;56.41
11712;BME280;5912;51.034;6.984;2024-01-10T04:35:29;56875.19;;;-142.13;56.66
11712;BME280;5912;51.034;6.984;2024-01-10T04:37:55;56879.19;;;-142.13;57.03
11712;BME280;5912;51.034;6.984;2024-01-10T04:40:20;56877.19;;;-142.13;57.03
11712;BME280;5912;51.034;6.984;2024-01-10T04:42:46;56891.22;;;-142.13;57.43
11712;BME280;5912;51.034;6.984;2024-01-10T04:45:11;56889.22;;;-142.13;57.47
11712;BME280;5912;51.034;6.984;2024-01-10T04:47:36;56871.19;;;-142.13;56.92
11712;BME280;5912;51.034;6.984;2024-01-10T04:50:02;56891.22;;;-142.13;57.08
11712;BME280;5912;51.034;6.984;2024-01-10T04:52:27;56865.16;;;-142.13;57.20
11712;BME280;5912;51.034;6.984;2024-01-10T04:54:52;56883.19;;;-142.13;57.91
11712;BME280;5912;51.034;6.984;2024-01-10T04:57:18;56897.22;;;-142.13;58.03
11712;BME280;5912;51.034;6.984;2024-01-10T04:59:43;56873.19;;;-142.13;57.62
11712;BME280;5912;51.034;6.984;2024-01-10T05:02:08;56871.19;;;-142.13;57.12
11712;BME280;5912;51.034;6.984;2024-01-10T05:04:34;56881.19;;;-142.13;56.79
11712;BME280;5912;51.034;6.984;2024-01-10T05:06:59;56907.25;;;-142.13;57.34
11712;BME280;5912;51.034;6.984;2024-01-10T05:09:24;56901.22;;;-142.13;57.03
11712;BME280;5912;51.034;6.984;2024-01-10T05:11:50;56891.22;;;-142.13;57.15
11712;BME280;5912;51.034;6.984;2024-01-10T05:14:17;56877.19;;;-142.13;56.81
11712;BME280;5912;51.034;6.984;2024-01-10T05:16:44;56841.13;;;-142.13;56.87
11712;BME280;5912;51.034;6.984;2024-01-10T05:19:10;56861.16;;;-142.13;57.55
11712;BME280;5912;51.034;6.984;2024-01-10T05:21:35;56881.19;;;-142.13;57.31
11712;BME280;5912;51.034;6.984;2024-01-10T05:24:00;56897.22;;;-142.13;57.36
11712;BME280;5912;51.034;6.984;2024-01-10T05:26:25;56853.16;;;-142.13;57.83
11712;BME280;5912;51.034;6.984;2024-01-10T05:28:51;56857.16;;;-142.13;57.51
11712;BME280;5912;51.034;6.984;2024-01-10T05:31:16;56871.19;;;-142.13;56.78
11712;BME280;5912;51.034;6.984;2024-01-10T05:33:42;56881.19;;;-142.13;56.89
11712;BME280;5912;51.034;6.984;2024-01-10T05:36:08;56865.16;;;-142.13;56.87
11712;BME280;5912;51.034;6.984;2024-01-10T05:38:37;56889.22;;;-142.13;56.60
11712;BME280;5912;51.034;6.984;2024-01-10T05:41:02;56865.16;;;-142.13;56.93
11712;BME280;5912;51.034;6.984;2024-01-10T05:43:27;56903.25;;;-142.13;56.72
11712;BME280;5912;51.034;6.984;2024-01-10T05:45:52;56857.16;;;-142.13;56.36
11712;BME280;5912;51.034;6.984;2024-01-10T05:48:18;56883.19;;;-142.13;56.14
11712;BME280;5912;51.034;6.984;2024-01-10T05:50:43;56881.19;;;-142.13;56.46
11712;BME280;5912;51.034;6.984;2024-01-10T05:53:08;56871.19;;;-142.13;56.57
11712;BME280;5912;51.034;6.984;2024-01-10T05:55:35;56893.22;;;-142.13;56.82
11712;BME280;5912;51.034;6.984;2024-01-10T05:58:02;56857.16;;;-142.13;56.86
11712;BME280;5912;51.034;6.984;2024-01-10T06:00:27;56929.28;;;-142.13;56.74
11712;BME280;5912;51.034;6.984;2024-01-10T06:02:53;56891.22;;;-142.13;56.82
11712;BME280;5912;51.034;6.984;2024-01-10T06:05:18;56845.13;;;-142.13;56.93
11712;BME280;5912;51.034;6.984;2024-01-10T06:07:44;56853.16;;;-142.13;56.86
11712;BME280;5912;51.034;6.984;2024-01-10T06:10:09;56997.41;;;-142.13;56.84
11712;BME280;5912;51.034;6.984;2024-01-10T06:12:35;56869.19;;;-142.13;56.98
11712;BME280;5912;51.034;6.984;2024-01-10T06:15:00;56903.25;;;-142.13;57.12
11712;BME280;5912;51.034;6.984;2024-01-10T06:17:25;56891.22;;;-142.13;56.96
11712;BME280;5912;51.034;6.984;2024-01-10T06:19:51;56869.19;;;-142.13;57.06
11712;BME280;5912;51.034;6.984;2024-01-10T06:22:16;56921.28;;;-142.13;57.11
11712;BME280;5912;51.034;6.984;2024-01-10T06:24:45;56875.19;;;-142.13;57.03
11712;BME280;5912;51.034;6.984;2024-01-10T06:27:10;56891.22;;;-142.13;56.91
11712;BME280;5912;51.034;6.984;2024-01-10T06:29:36;56835.13;;;-142.13;57.44
11712;BME280;5912;51.034;6.984;2024-01-10T06:32:04;56869.19;;;-142.13;57.36
11712;BME280;5912;51.034;6.984;2024-01-10T06:34:31;56917.25;;;-142.13;57.11
11712;BME280;5912;51.034;6.984;2024-01-10T06:36:57;56877.19;;;-142.13;57.16
11712;BME280;5912;51.034;6.984;2024-01-10T06:39:23;56889.22;;;-142.13;57.27
11712;BME280;5912;51.034;6.984;2024-01-10T06:41:48;57055.50;;;-142.13;57.07
11712;BME280;5912;51.034;6.984;2024-01-10T06:44:14;56881.19;;;-142.13;57.34
11712;BME280;5912;51.034;6.984;2024-01-10T06:46:40;56893.22;;;-142.13;57.22
11712;BME280;5912;51.034;6.984;2024-01-10T06:49:05;56891.22;;;-142.13;57.67
11712;BME280;5912;51.034;6.984;2024-01-10T06:51:32;56871.19;;;-142.13;57.66
11712;BME280;5912;51.034;6.984;2024-01-10T06:53:57;56877.19;;;-142.13;57.54
11712;BME280;5912;51.034;6.984;2024-01-10T06:56:29;56883.19;;;-142.13;57.43
11712;BME280;5912;51.034;6.984;2024-01-10T06:58:54;56895.22;;;-142.13;57.44
11712;BME280;5912;51.034;6.984;2024-01-10T07:01:19;56883.19;;;-142.13;57.72
11712;BME280;5912;51.034;6.984;2024-01-10T07:03:47;56851.16;;;-142.13;57.53
11712;BME280;5912;51.034;6.984;2024-01-10T07:06:12;56855.16;;;-142.13;57.27
11712;BME280;5912;51.034;6.984;2024-01-10T07:08:40;56893.22;;;-142.13;57.96
11712;BME280;5912;51.034;6.984;2024-01-10T07:11:05;57005.41;;;-142.13;57.73
11712;BME280;5912;51.034;6.984;2024-01-10T07:13:31;56903.25;;;-142.13;58.09
11712;BME280;5912;51.034;6.984;2024-01-10T07:15:57;56883.19;;;-142.13;58.30
11712;BME280;5912;51.034;6.984;2024-01-10T07:18:22;56879.19;;;-142.13;58.11
11712;BME280;5912;51.034;6.984;2024-01-10T07:20:47;56883.19;;;-142.13;57.70
11712;BME280;5912;51.034;6.984;2024-01-10T07:23:12;56891.22;;;-142.13;57.57
11712;BME280;5912;51.034;6.984;2024-01-10T07:25:38;56863.16;;;-142.13;57.68
11712;BME280;5912;51.034;6.984;2024-01-10T07:28:03;56873.19;;;-142.13;57.91
11712;BME280;5912;51.034;6.984;2024-01-10T07:30:29;56909.25;;;-142.13;58.09
11712;BME280;5912;51.034;6.984;2024-01-10T07:32:58;56845.13;;;-142.13;57.76
11712;BME280;5912;51.034;6.984;2024-01-10T07:35:23;56885.22;;;-142.13;58.03
11712;BME280;5912;51.034;6.984;2024-01-10T07:37:48;56885.22;;;-142.13;58.07
11712;BME280;5912;51.034;6.984;2024-01-10T07:40:14;56869.19;;;-142.13;58.24
11712;BME280;5912;51.034;6.984;2024-01-10T07:42:39;56885.22;;;-142.13;58.13
11712;BME280;5912;51.034;6.984;2024-01-10T07:45:07;56877.19;;;-142.13;58.37
11712;BME280;5912;51.034;6.984;2024-01-10T07:47:34;56891.22;;;-142.13;58.44
11712;BME280;5912;51.034;6.984;2024-01-10T07:50:04;56881.19;;;-142.13;58.43
11712;BME280;5912;51.034;6.984;2024-01-10T07:52:30;56845.13;;;-142.13;58.62
11712;BME280;5912;51.034;6.984;2024-01-10T07:54:55;56869.19;;;-142.13;58.76
11712;BME280;5912;51.034;6.984;2024-01-10T07:57:21;56881.19;;;-142.13;58.41
11712;BME280;5912;51.034;6.984;2024-01-10T07:59:46;56855.16;;;-142.13;58.62
11712;BME280;5912;51.034;6.984;2024-01-10T08:02:12;56893.22;;;-142.13;58.94
11712;BME280;5912;51.034;6.984;2024-01-10T08:04:37;56873.19;;;-142.13;59.23
11712;BME280;5912;51.034;6.984;2024-01-10T08:07:03;56887.22;;;-142.13;58.93
11712;BME280;5912;51.034;6.984;2024-01-10T08:09:28;56893.22;;;-142.13;59.03
11712;BME280;5912;51.034;6.984;2024-01-10T08:11:54;56853.16;;;-142.13;59.00
11712;BME280;5912;51.034;6.984;2024-01-10T08:14:19;56887.22;;;-142.13;58.76
11712;BME280;5912;51.034;6.984;2024-01-10T08:16:44;56859.16;;;-142.13;58.74
11712;BME280;5912;51.034;6.984;2024-01-10T08:19:10;56911.25;;;-142.13;58.91
11712;BME280;5912;51.034;6.984;2024-01-10T08:21:36;56867.19;;;-142.13;58.73
11712;BME280;5912;51.034;6.984;2024-01-10T08:24:02;56869.19;;;-142.13;58.69
11712;BME280;5912;51.034;6.984;2024-01-10T08:26:28;56839.13;;;-142.13;58.78
11712;BME280;5912;51.034;6.984;2024-01-10T08:28:54;56895.22;;;-142.13;59.02
11712;BME280;5912;51.034;6.984;2024-01-10T08:31:19;56875.19;;;-142.13;58.88
11712;BME280;5912;51.034;6.984;2024-01-10T08:33:45;56827.09;;;-142.13;58.52
11712;BME280;5912;51.034;6.984;2024-01-10T08:36:12;56889.22;;;-142.13;58.57
11712;BME280;5912;51.034;6.984;2024-01-10T08:38:38;56825.09;;;-142.13;58.31
11712;BME280;5912;51.034;6.984;2024-01-10T08:41:03;56867.19;;;-142.13;58.04
11712;BME280;5912;51.034;6.984;2024-01-10T08:43:29;56845.13;;;-142.13;57.81
11712;BME280;5912;51.034;6.984;2024-01-10T08:45:54;56863.16;;;-142.13;57.42
11712;BME280;5912;51.034;6.984;2024-01-10T08:48:19;56855.16;;;-142.13;57.05
11712;BME280;5912;51.034;6.984;2024-01-10T08:50:45;56863.16;;;-142.13;57.20
11712;BME280;5912;51.034;6.984;2024-01-10T08:53:10;56855.16;;;-142.13;56.65
11712;BME280;5912;51.034;6.984;2024-01-10T08:55:36;56861.16;;;-142.13;55.77
11712;BME280;5912;51.034;6.984;2024-01-10T08:58:03;56885.22;;;-142.13;55.63
11712;BME280;5912;51.034;6.984;2024-01-10T09:00:28;56825.09;;;-142.13;55.16
11712;BME280;5912;51.034;6.984;2024-01-10T09:02:54;56849.16;;;-142.13;54.72
11712;BME280;5912;51.034;6.984;2024-01-10T09:05:20;56843.13;;;-142.13;54.22
11712;BME280;5912;51.034;6.984;2024-01-10T09:07:47;56873.19;;;-142.13;54.27
11712;BME280;5912;51.034;6.984;2024-01-10T09:10:12;56863.16;;;-142.13;54.57
11712;BME280;5912;51.034;6.984;2024-01-10T09:12:37;56853.16;;;-142.13;54.22
11712;BME280;5912;51.034;6.984;2024-01-10T09:15:03;56845.13;;;-142.13;54.32
11712;BME280;5912;51.034;6.984;2024-01-10T09:17:29;56827.09;;;-142.13;53.63
11712;BME280;5912;51.034;6.984;2024-01-10T09:19:54;56853.16;;;-142.13;53.54
11712;BME280;5912;51.034;6.984;2024-01-10T09:22:19;56857.16;;;-142.13;53.84
11712;BME280;5912;51.034;6.984;2024-01-10T09:24:45;56841.13;;;-142.13;53.65
11712;BME280;5912;51.034;6.984;2024-01-10T09:27:10;56841.13;;;-142.13;53.13
11712;BME280;5912;51.034;6.984;2024-01-10T09:29:36;56853.16;;;-142.13;53.49
11712;BME280;5912;51.034;6.984;2024-01-10T09:32:01;56873.19;;;-142.13;53.50
11712;BME280;5912;51.034;6.984;2024-01-10T09:34:26;56837.13;;;-142.13;53.13
11712;BME280;5912;51.034;6.984;2024-01-10T09:36:52;56805.06;;;-142.13;52.92
11712;BME280;5912;51.034;6.984;2024-01-10T09:39:18;56841.13;;;-142.13;53.29
11712;BME280;5912;51.034;6.984;2024-01-10T09:41:47;56837.13;;;-142.13;53.15
11712;BME280;5912;51.034;6.984;2024-01-10T09:44:16;56861.16;;;-142.13;53.23
11712;BME280;5912;51.034;6.984;2024-01-10T09:46:48;56853.16;;;-142.13;53.32
11712;BME280;5912;51.034;6.984;2024-01-10T09:49:14;56829.09;;;-142.13;52.75
11712;BME280;5912;51.034;6.984;2024-01-10T09:51:39;56805.06;;;-142.13;52.66
11712;BME280;5912;51.034;6.984;2024-01-10T09:54:05;56837.13;;;-142.13;52.72
11712;BME280;5912;51.034;6.984;2024-01-10T09:56:33;56827.09;;;-142.13;52.22
11712;BME280;5912;51.034;6.984;2024-01-10T09:59:01;56847.13;;;-142.13;51.94
11712;BME280;5912;51.034;6.984;2024-01-10T10:01:26;56833.13;;;-142.13;52.93
11712;BME280;5912;51.034;6.984;2024-01-10T10:03:53;56861.16;;;-142.13;52.84
11712;BME280;5912;51.034;6.984;2024-01-10T10:06:21;56797.06;;;-142.13;53.49
11712;BME280;5912;51.034;6.984;2024-01-10T10:08:46;56833.13;;;-142.13;53.68
11712;BME280;5912;51.034;6.984;2024-01-10T10:11:12;56847.13;;;-142.13;53.35
11712;BME280;5912;51.034;6.984;2024-01-10T10:13:40;56825.09;;;-142.13;53.26
11712;BME280;5912;51.034;6.984;2024-01-10T10:16:07;56829.09;;;-142.13;53.56
11712;BME280;5912;51.034;6.984;2024-01-10T10:18:35;56825.09;;;-142.13;53.70
11712;BME280;5912;51.034;6.984;2024-01-10T10:21:18;56813.09;;;-142.13;53.54
11712;BME280;5912;51.034;6.984;2024-01-10T10:23:58;56829.09;;;-142.13;54.11
11712;BME280;5912;51.034;6.984;2024-01-10T10:26:29;56791.03;;;-142.13;53.86
11712;BME280;5912;51.034;6.984;2024-01-10T10:28:57;56831.13;;;-142.13;52.67
11712;BME280;5912;51.034;6.984;2024-01-10T10:31:23;56781.03;;;-142.13;52.68
11712;BME280;5912;51.034;6.984;2024-01-10T10:33:49;56805.06;;;-142.13;51.03
11712;BME280;5912;51.034;6.984;2024-01-10T10:36:16;56793.06;;;-142.13;50.21
11712;BME280;5912;51.034;6.984;2024-01-10T10:38:41;56805.06;;;-142.13;49.79
11712;BME280;5912;51.034;6.984;2024-01-10T10:41:07;56787.03;;;-142.13;45.45
11712;BME280;5912;51.034;6.984;2024-01-10T10:43:37;56775.03;;;-142.13;45.19
11712;BME280;5912;51.034;6.984;2024-01-10T10:46:07;56728.94;;;-142.13;42.71
11712;BME280;5912;51.034;6.984;2024-01-10T10:48:34;56771.00;;;-142.13;41.83
11712;BME280;5912;51.034;6.984;2024-01-10T10:51:08;56738.97;;;-142.13;39.41
11712;BME280;5912;51.034;6.984;2024-01-10T10:53:35;56771.00;;;-142.13;39.21
11712;BME280;5912;51.034;6.984;2024-01-10T10:56:03;56708.91;;;-142.13;39.24
11712;BME280;5912;51.034;6.984;2024-01-10T10:58:32;56730.94;;;-142.13;37.66
11712;BME280;5912;51.034;6.984;2024-01-10T11:00:59;56722.94;;;-142.13;37.41
11712;BME280;5912;51.034;6.984;2024-01-10T11:03:25;56666.84;;;-142.13;36.03
11712;BME280;5912;51.034;6.984;2024-01-10T11:05:52;56702.91;;;-142.13;36.20
11712;BME280;5912;51.034;6.984;2024-01-10T11:08:19;56672.84;;;-142.13;36.03
11712;BME280;5912;51.034;6.984;2024-01-10T11:10:46;56682.88;;;-142.13;35.05
11712;BME280;5912;51.034;6.984;2024-01-10T11:16:25;56698.88;;;-142.13;36.70
11712;BME280;5912;51.034;6.984;2024-01-10T11:19:14;56682.88;;;-142.13;36.18
11712;BME280;5912;51.034;6.984;2024-01-10T11:22:16;56722.94;;;-142.13;37.34
11712;BME280;5912;51.034;6.984;2024-01-10T11:24:44;56716.91;;;-142.13;37.84
11712;BME280;5912;51.034;6.984;2024-01-10T11:27:14;56736.94;;;-142.13;38.23
11712;BME280;5912;51.034;6.984;2024-01-10T11:29:40;56730.94;;;-142.13;38.11
11712;BME280;5912;51.034;6.984;2024-01-10T11:32:06;56720.94;;;-142.13;38.04
11712;BME280;5912;51.034;6.984;2024-01-10T11:34:34;56752.97;;;-142.13;37.57
11712;BME280;5912;51.034;6.984;2024-01-10T11:37:10;56728.94;;;-142.13;37.83
11712;BME280;5912;51.034;6.984;2024-01-10T11:39:36;56708.91;;;-142.13;37.94
11712;BME280;5912;51.034;6.984;2024-01-10T11:42:01;56708.91;;;-142.13;37.67
11712;BME280;5912;51.034;6.984;2024-01-10T11:44:27;56714.91;;;-142.13;38.85
11712;BME280;5912;51.034;6.984;2024-01-10T11:46:54;56726.94;;;-142.13;38.55
11712;BME280;5912;51.034;6.984;2024-01-10T11:49:20;56700.91;;;-142.13;38.96
11712;BME280;5912;51.034;6.984;2024-01-10T11:51:52;56728.94;;;-142.13;38.18
11712;BME280;5912;51.034;6.984;2024-01-10T11:57:02;56696.88;;;-142.13;37.31
11712;BME280;5912;51.034;6.984;2024-01-10T11:59:28;56718.91;;;-142.13;37.46
11712;BME280;5912;51.034;6.984;2024-01-10T12:01:55;56676.84;;;-142.13;36.88
11712;BME280;5912;51.034;6.984;2024-01-10T12:04:21;56676.84;;;-142.13;35.71
11712;BME280;5912;51.034;6.984;2024-01-10T12:06:46;56668.84;;;-142.13;35.69
11712;BME280;5912;51.034;6.984;2024-01-10T12:09:12;56688.88;;;-142.13;35.70
11712;BME280;5912;51.034;6.984;2024-01-10T12:11:39;56658.81;;;-142.13;34.80
11712;BME280;5912;51.034;6.984;2024-01-10T12:14:05;56654.81;;;-142.13;35.08
11712;BME280;5912;51.034;6.984;2024-01-10T12:16:34;56666.84;;;-142.13;34.08
11712;BME280;5912;51.034;6.984;2024-01-10T12:18:59;56644.81;;;-142.13;33.98
11712;BME280;5912;51.034;6.984;2024-01-10T12:21:25;56650.81;;;-142.13;33.43
11712;BME280;5912;51.034;6.984;2024-01-10T12:23:50;56600.72;;;-142.13;32.68
11712;BME280;5912;51.034;6.984;2024-01-10T12:26:17;56618.75;;;-142.13;33.14
11712;BME280;5912;51.034;6.984;2024-01-10T12:28:54;56636.78;;;-142.13;33.13
11712;BME280;5912;51.034;6.984;2024-01-10T12:31:19;56648.81;;;-142.13;33.26
11712;BME280;5912;51.034;6.984;2024-01-10T12:33:48;56656.81;;;-142.13;33.08
11712;BME280;5912;51.034;6.984;2024-01-10T12:36:13;56630.78;;;-142.13;34.06
11712;BME280;5912;51.034;6.984;2024-01-10T12:38:38;56688.88;;;-142.13;34.02
11712;BME280;5912;51.034;6.984;2024-01-10T12:41:04;56672.84;;;-142.13;34.35
11712;BME280;5912;51.034;6.984;2024-01-10T12:43:31;56654.81;;;-142.13;35.11
11712;BME280;5912;51.034;6.984;2024-01-10T12:48:31;56686.88;;;-142.13;35.17
11712;BME280;5912;51.034;6.984;2024-01-10T12:50:58;56700.91;;;-142.13;34.91
11712;BME280;5912;51.034;6.984;2024-01-10T12:53:28;56676.84;;;-142.13;34.69